Time;durP1;ratioP1;P1;durP2;ratioP2;P2;SDS_P1;SDS_P2;PMS_P1;PMS_P2;Temp;Humidity;BMP_temperature;BMP_pressure;BME280_temperature;BME280_humidity;BME280_pressure;Samples;Min_cycle;Max_cycle;Signal;HPM_P1;HPM_P2
2022/04/22 00:01:18;;;;;;;3.63;2.17;;;14.70;56.90;;;;;;5083398;28;20063;-61
2022/04/22 00:03:44;;;;;;;2.63;1.85;;;14.70;57.20;;;;;;5098384;28;20080;-61
2022/04/22 00:06:10;;;;;;;5.68;1.80;;;14.60;57.40;;;;;;5087156;28;20501;-61
2022/04/22 00:08:36;;;;;;;2.60;1.38;;;14.60;57.70;;;;;;5088148;28;20012;-65
2022/04/22 00:13:46;;;;;;;4.43;1.70;;;14.50;57.80;;;;;;5088920;28;20497;-65
2022/04/22 00:16:12;;;;;;;5.63;2.10;;;14.50;58.10;;;;;;5086598;28;20202;-66
2022/04/22 00:18:38;;;;;;;2.80;1.80;;;14.40;58.30;;;;;;5086488;28;20032;-65
2022/04/22 00:21:04;;;;;;;1.90;1.70;;;14.40;58.40;;;;;;5088855;28;20028;-65
2022/04/22 00:23:30;;;;;;;2.33;1.90;;;14.40;58.30;;;;;;5096587;28;20078;-64
2022/04/22 00:25:58;;;;;;;2.97;1.50;;;14.40;58.30;;;;;;5094830;28;20056;-61
2022/04/22 00:28:24;;;;;;;1.38;0.93;;;14.40;58.30;;;;;;5084479;28;20028;-61
2022/04/22 00:30:50;;;;;;;4.22;1.73;;;14.40;58.30;;;;;;5092070;28;20023;-61
2022/04/22 00:33:17;;;;;;;1.85;1.75;;;14.40;58.50;;;;;;5075905;28;20382;-64
2022/04/22 00:35:44;;;;;;;1.90;1.70;;;14.40;58.60;;;;;;5086754;28;20055;-65
2022/04/22 00:38:10;;;;;;;1.70;1.58;;;14.30;58.60;;;;;;5092119;28;20028;-61
2022/04/22 00:40:37;;;;;;;1.73;1.38;;;14.30;58.70;;;;;;5088942;28;20076;-65
2022/04/22 00:43:22;;;;;;;1.38;1.25;;;14.30;58.60;;;;;;5095366;28;20028;-64
2022/04/22 00:45:49;;;;;;;2.72;2.00;;;14.30;58.70;;;;;;5087985;28;20483;-64
2022/04/22 00:48:16;;;;;;;2.60;1.48;;;14.30;58.70;;;;;;5086235;28;20503;-65
2022/04/22 00:50:42;;;;;;;2.10;1.55;;;14.30;58.90;;;;;;5070824;28;20028;-67
2022/04/22 00:53:08;;;;;;;1.25;1.15;;;14.20;58.90;;;;;;5087258;28;20054;-61
2022/04/22 00:55:36;;;;;;;5.43;2.50;;;14.20;59.10;;;;;;5093632;28;20035;-61
2022/04/22 00:58:03;;;;;;;1.67;1.58;;;14.10;59.20;;;;;;5087044;28;20073;-60
2022/04/22 01:00:28;;;;;;;1.48;1.30;;;14.10;59.90;;;;;;5086919;28;20498;-61
2022/04/22 01:02:54;;;;;;;1.48;1.30;;;14.10;59.50;;;;;;5080989;28;20031;-61
2022/04/22 01:10:51;;;;;;;2.17;1.40;;;14.00;59.60;;;;;;5083456;28;20047;-60
2022/04/22 01:13:17;;;;;;;1.63;1.27;;;14.00;59.70;;;;;;5087630;28;20028;-65
2022/04/22 01:15:43;;;;;;;2.78;1.48;;;14.00;59.70;;;;;;5086214;28;20039;-65
2022/04/22 01:18:10;;;;;;;1.70;1.60;;;13.90;59.70;;;;;;5084277;28;20036;-65
2022/04/22 01:20:36;;;;;;;1.98;1.55;;;14.00;60.00;;;;;;5088837;28;20467;-61
2022/04/22 01:23:02;;;;;;;3.75;2.15;;;13.90;60.10;;;;;;5089153;28;20019;-61
2022/04/22 01:25:27;;;;;;;1.75;1.35;;;13.80;60.20;;;;;;5083254;28;20036;-61
2022/04/22 01:27:55;;;;;;;11.57;1.50;;;13.80;60.30;;;;;;5102978;28;20061;-61
2022/04/22 01:30:23;;;;;;;1.98;1.75;;;13.80;60.50;;;;;;5085561;28;20518;-61
2022/04/22 01:32:54;;;;;;;1.88;1.45;;;13.80;60.70;;;;;;5087079;28;20043;-61
2022/04/22 01:35:21;;;;;;;1.53;1.40;;;13.80;60.80;;;;;;5086357;28;20024;-61
2022/04/22 01:37:47;;;;;;;2.92;1.95;;;13.70;60.70;;;;;;5084874;28;20094;-61
2022/04/22 01:40:13;;;;;;;3.63;1.80;;;13.70;60.90;;;;;;5087762;28;20119;-61
2022/04/22 01:42:39;;;;;;;2.45;1.42;;;13.70;60.90;;;;;;5082885;28;20385;-61
2022/04/22 01:45:06;;;;;;;1.40;1.30;;;13.60;61.00;;;;;;5092625;28;20032;-61
2022/04/22 01:47:32;;;;;;;2.22;1.85;;;13.60;61.20;;;;;;5085555;28;20081;-61
2022/04/22 01:49:58;;;;;;;1.73;1.33;;;13.50;61.30;;;;;;5085315;28;20024;-61
2022/04/22 01:52:24;;;;;;;1.98;1.80;;;13.50;61.40;;;;;;5085612;28;20027;-61
2022/04/22 01:54:51;;;;;;;5.13;1.95;;;13.50;61.60;;;;;;5085558;28;20031;-61
2022/04/22 01:57:17;;;;;;;2.63;1.75;;;13.50;61.70;;;;;;5086583;28;20030;-61
2022/04/22 01:59:44;;;;;;;2.40;1.70;;;13.50;61.80;;;;;;5090431;28;20046;-61
2022/04/22 02:02:13;;;;;;;3.25;2.05;;;13.50;61.70;;;;;;5086173;28;20036;-65
2022/04/22 02:04:39;;;;;;;1.90;1.40;;;13.50;61.80;;;;;;5081339;28;20495;-65
2022/04/22 02:07:05;;;;;;;1.80;1.48;;;13.40;61.90;;;;;;5084937;28;20108;-62
2022/04/22 02:09:31;;;;;;;2.35;1.25;;;13.40;61.90;;;;;;5087498;28;20032;-62
2022/04/22 02:11:57;;;;;;;2.47;1.73;;;13.40;62.10;;;;;;5091670;28;20550;-61
2022/04/22 02:14:23;;;;;;;2.45;1.90;;;13.40;62.20;;;;;;5083169;28;20028;-64
2022/04/22 02:16:49;;;;;;;4.57;1.50;;;13.30;62.30;;;;;;5087083;28;20100;-65
2022/04/22 02:19:14;;;;;;;2.25;1.52;;;13.30;62.60;;;;;;5084506;28;20192;-64
2022/04/22 02:21:41;;;;;;;1.58;1.40;;;13.20;62.70;;;;;;5097879;28;20133;-64
2022/04/22 02:24:07;;;;;;;2.38;1.40;;;13.20;62.90;;;;;;5090699;28;20367;-64
2022/04/22 02:28:31;;;;;;;2.67;1.75;;;13.20;63.10;;;;;;5085041;28;20055;-61
2022/04/22 02:29:19;;;;;;;1.40;1.30;;;13.20;63.10;;;;;;5092258;28;20120;-63
2022/04/22 02:31:45;;;;;;;1.48;1.38;;;13.20;63.30;;;;;;5084562;28;20024;-63
2022/04/22 02:34:11;;;;;;;2.88;1.77;;;13.10;63.40;;;;;;5083376;28;20051;-64
2022/04/22 02:36:36;;;;;;;2.05;1.65;;;13.10;63.70;;;;;;5087810;28;20032;-64
2022/04/22 02:39:02;;;;;;;1.45;1.15;;;13.10;64.00;;;;;;5085001;28;20483;-60
2022/04/22 02:46:56;;;;;;;1.40;1.23;;;13.00;64.90;;;;;;5085300;28;20043;-65
2022/04/22 02:49:21;;;;;;;1.98;1.80;;;12.90;65.10;;;;;;5087890;28;20433;-64
2022/04/22 02:51:47;;;;;;;1.23;0.95;;;12.90;65.20;;;;;;5084281;28;20558;-64
2022/04/22 02:54:13;;;;;;;3.60;1.65;;;12.90;65.60;;;;;;5086800;28;20037;-64
2022/04/22 02:56:39;;;;;;;1.27;1.05;;;12.90;65.90;;;;;;5063370;28;20080;-64
2022/04/22 02:59:05;;;;;;;1.90;1.30;;;12.90;66.10;;;;;;5081365;28;20031;-65
2022/04/22 03:01:33;;;;;;;2.00;1.45;;;12.90;66.40;;;;;;5082738;28;20332;-65
2022/04/22 03:03:58;;;;;;;1.33;1.20;;;12.90;66.50;;;;;;5078044;28;20500;-64
2022/04/22 03:06:26;;;;;;;2.58;1.70;;;12.80;66.40;;;;;;5083278;28;20044;-65
2022/04/22 03:08:52;;;;;;;2.60;1.67;;;12.80;66.70;;;;;;5081119;28;20131;-65
2022/04/22 03:11:21;;;;;;;3.95;2.10;;;12.80;67.00;;;;;;5082434;28;20645;-65
2022/04/22 03:13:50;;;;;;;1.75;1.65;;;12.70;67.30;;;;;;5082003;28;20123;-65
2022/04/22 03:16:18;;;;;;;3.63;2.35;;;12.70;67.20;;;;;;5084886;28;20028;-64
2022/04/22 03:18:44;;;;;;;3.92;1.35;;;12.70;67.50;;;;;;5080661;28;20039;-65
2022/04/22 03:21:09;;;;;;;2.58;2.03;;;12.60;67.70;;;;;;5085188;28;20032;-65
2022/04/22 03:23:35;;;;;;;1.77;1.67;;;12.60;67.90;;;;;;5086318;28;20057;-65
2022/04/22 03:26:01;;;;;;;3.17;1.92;;;12.60;67.80;;;;;;5087492;28;20055;-64
2022/04/22 03:28:27;;;;;;;2.80;1.63;;;12.60;68.20;;;;;;5087154;28;20044;-60
2022/04/22 03:30:52;;;;;;;1.50;1.33;;;12.50;68.30;;;;;;5083599;28;20031;-60
2022/04/22 03:33:19;;;;;;;2.70;1.80;;;12.60;68.30;;;;;;5085184;28;20780;-64
2022/04/22 03:35:50;;;;;;;6.63;1.55;;;12.50;68.30;;;;;;5083905;28;20032;-64
2022/04/22 03:38:19;;;;;;;2.28;2.08;;;12.50;68.60;;;;;;5088760;28;20024;-64
2022/04/22 03:40:45;;;;;;;2.72;1.73;;;12.50;68.80;;;;;;5082613;28;20070;-64
2022/04/22 03:43:11;;;;;;;5.05;1.80;;;12.50;69.00;;;;;;5087779;28;20024;-64
2022/04/22 03:45:37;;;;;;;4.57;1.77;;;12.50;68.80;;;;;;5084332;28;20043;-64
2022/04/22 03:48:06;;;;;;;3.42;1.92;;;12.50;69.10;;;;;;5085282;28;20035;-64
2022/04/22 03:50:31;;;;;;;1.85;1.45;;;12.40;69.20;;;;;;5084590;28;20032;-65
2022/04/22 03:52:57;;;;;;;1.58;1.25;;;12.40;69.00;;;;;;5083384;28;20025;-66
2022/04/22 03:55:23;;;;;;;2.85;2.30;;;12.40;69.00;;;;;;5067436;28;20487;-61
2022/04/22 04:00:33;;;;;;;3.50;2.08;;;12.30;69.50;;;;;;5092103;28;20094;-62
2022/04/22 04:03:00;;;;;;;3.70;2.10;;;12.30;69.80;;;;;;5086986;28;20028;-62
2022/04/22 04:05:26;;;;;;;2.78;1.95;;;12.30;70.00;;;;;;5083752;28;20523;-65
2022/04/22 04:07:51;;;;;;;3.47;1.90;;;12.20;70.00;;;;;;5084956;28;20176;-61
2022/04/22 04:16:03;;;;;;;2.38;1.73;;;12.20;70.00;;;;;;5081940;28;20071;-61
2022/04/22 04:18:33;;;;;;;1.52;1.40;;;12.20;70.00;;;;;;5085217;28;20040;-61
2022/04/22 04:23:45;;;;;;;4.80;2.25;;;12.10;70.40;;;;;;5080753;28;20459;-61
2022/04/22 04:26:12;;;;;;;3.03;2.17;;;12.10;70.60;;;;;;5085280;28;20131;-65
2022/04/22 04:28:39;;;;;;;3.38;1.63;;;12.10;70.70;;;;;;5085185;28;20402;-65
2022/04/22 04:31:06;;;;;;;2.05;1.48;;;12.10;70.90;;;;;;5090070;28;20028;-65
2022/04/22 04:33:32;;;;;;;2.15;1.95;;;12.00;71.00;;;;;;5092218;28;20043;-65
2022/04/22 04:35:59;;;;;;;2.33;1.65;;;12.00;71.10;;;;;;5089834;28;20067;-65
2022/04/22 04:38:25;;;;;;;5.00;2.17;;;12.00;71.00;;;;;;5086684;28;20379;-65
2022/04/22 04:40:51;;;;;;;2.45;1.83;;;12.00;71.20;;;;;;5091215;28;20049;-65
2022/04/22 04:43:18;;;;;;;3.38;2.03;;;12.00;71.20;;;;;;5091606;28;20028;-65
2022/04/22 04:45:45;;;;;;;5.63;1.58;;;12.00;71.40;;;;;;5087364;28;20032;-65
2022/04/22 04:48:11;;;;;;;1.58;1.38;;;12.00;71.40;;;;;;5093561;28;20028;-61
2022/04/22 04:50:40;;;;;;;4.38;2.22;;;12.00;71.50;;;;;;5084845;28;20028;-61
2022/04/22 04:53:06;;;;;;;1.60;1.40;;;12.00;71.70;;;;;;5083526;28;20108;-61
2022/04/22 04:55:32;;;;;;;2.00;1.73;;;12.00;71.80;;;;;;5089253;28;20085;-65
2022/04/22 04:57:57;;;;;;;3.17;2.88;;;12.00;71.70;;;;;;5088480;28;20028;-65
2022/04/22 05:00:23;;;;;;;2.72;1.63;;;12.00;71.60;;;;;;5095388;28;20052;-66
2022/04/22 05:02:49;;;;;;;2.40;1.45;;;12.00;71.70;;;;;;5094121;28;20485;-61
2022/04/22 05:05:15;;;;;;;2.75;1.60;;;12.00;71.60;;;;;;5083169;28;20441;-61
2022/04/22 05:07:53;;;;;;;2.05;1.60;;;12.00;71.60;;;;;;5088542;28;20368;-61
2022/04/22 05:10:19;;;;;;;2.47;1.90;;;12.00;71.80;;;;;;5091997;28;20028;-61
2022/04/22 05:12:49;;;;;;;3.50;1.88;;;11.90;71.70;;;;;;5087681;28;20117;-62
2022/04/22 05:15:17;;;;;;;2.13;1.92;;;11.90;71.80;;;;;;5094694;28;20032;-65
2022/04/22 05:17:44;;;;;;;4.90;2.00;;;11.90;71.80;;;;;;5090032;28;20565;-60
2022/04/22 05:20:11;;;;;;;2.55;2.17;;;11.90;72.00;;;;;;5074142;28;20062;-61
2022/04/22 05:22:38;;;;;;;2.28;2.08;;;11.90;72.00;;;;;;5093981;28;20039;-65
2022/04/22 05:25:05;;;;;;;1.95;1.75;;;11.90;72.10;;;;;;5084376;28;20555;-65
2022/04/22 05:27:32;;;;;;;1.20;1.10;;;11.90;72.20;;;;;;5093112;28;20205;-65
2022/04/22 05:32:47;;;;;;;2.58;1.85;;;11.90;72.20;;;;;;5091564;28;20505;-65
2022/04/22 05:35:15;;;;;;;3.80;1.88;;;11.90;72.40;;;;;;5089107;28;20479;-65
2022/04/22 05:37:58;;;;;;;2.25;1.65;;;11.80;72.40;;;;;;5092709;28;20510;-65
2022/04/22 05:40:27;;;;;;;2.67;2.35;;;11.80;72.70;;;;;;5088549;28;20028;-64
2022/04/22 05:42:53;;;;;;;1.83;1.70;;;11.80;72.60;;;;;;5086936;28;20118;-64
2022/04/22 05:45:20;;;;;;;4.00;2.15;;;11.80;72.70;;;;;;5087374;28;20089;-65
2022/04/22 05:47:46;;;;;;;3.05;1.65;;;11.80;72.80;;;;;;5090784;28;20024;-64
2022/04/22 05:50:14;;;;;;;3.58;1.77;;;11.80;73.00;;;;;;5070065;28;20028;-65
2022/04/22 05:52:40;;;;;;;8.68;2.10;;;11.90;72.80;;;;;;5084635;28;20028;-65
2022/04/22 05:55:12;;;;;;;2.65;2.40;;;11.90;72.90;;;;;;5085775;28;20024;-65
2022/04/22 05:57:39;;;;;;;2.67;1.80;;;12.00;73.10;;;;;;5081484;28;20102;-65
2022/04/22 06:00:08;;;;;;;2.97;2.20;;;12.00;72.90;;;;;;5091191;28;20036;-65
2022/04/22 06:02:34;;;;;;;3.83;2.10;;;12.00;72.90;;;;;;5084918;28;20031;-65
2022/04/22 06:05:00;;;;;;;2.03;1.55;;;12.00;73.00;;;;;;5089669;28;20372;-65
2022/04/22 06:07:25;;;;;;;2.53;2.28;;;12.00;72.90;;;;;;5085534;28;20115;-65
2022/04/22 06:12:35;;;;;;;3.85;2.30;;;12.00;72.90;;;;;;5094350;28;20027;-61
2022/04/22 06:15:02;;;;;;;4.28;2.20;;;12.10;72.90;;;;;;5083583;28;20423;-60
2022/04/22 06:17:29;;;;;;;2.92;2.65;;;12.10;72.80;;;;;;5086172;28;20161;-60
2022/04/22 06:19:56;;;;;;;4.32;2.28;;;12.10;72.60;;;;;;5094268;28;20114;-61
2022/04/22 06:22:22;;;;;;;1.77;1.67;;;12.10;72.60;;;;;;5091545;28;20066;-61
2022/04/22 06:24:47;;;;;;;2.67;1.52;;;12.10;72.50;;;;;;5087476;28;20060;-62
2022/04/22 06:27:13;;;;;;;1.80;1.70;;;12.10;72.50;;;;;;5089979;28;20059;-61
2022/04/22 06:29:39;;;;;;;2.17;2.03;;;12.10;72.50;;;;;;5084449;28;20031;-61
2022/04/22 06:32:05;;;;;;;3.97;2.42;;;12.20;72.50;;;;;;5083649;28;20020;-61
2022/04/22 06:34:31;;;;;;;2.70;1.98;;;12.20;72.50;;;;;;5086210;28;20086;-61
2022/04/22 06:36:57;;;;;;;3.00;2.10;;;12.30;72.40;;;;;;5081359;28;20028;-62
2022/04/22 06:39:23;;;;;;;3.22;2.45;;;12.30;72.30;;;;;;5083623;28;20047;-62
2022/04/22 06:47:18;;;;;;;2.33;2.03;;;12.40;72.10;;;;;;5078940;28;20596;-62
2022/04/22 06:49:44;;;;;;;3.35;2.53;;;12.40;71.90;;;;;;5083545;28;20028;-62
2022/04/22 06:52:10;;;;;;;4.43;3.42;;;12.50;71.90;;;;;;5092013;28;20036;-61
2022/04/22 06:54:36;;;;;;;3.30;2.28;;;12.50;71.90;;;;;;5083644;28;20082;-61
2022/04/22 06:57:03;;;;;;;5.53;2.65;;;12.60;71.80;;;;;;5086493;28;20028;-60
2022/04/22 06:59:31;;;;;;;3.42;2.88;;;12.60;71.70;;;;;;5085708;28;20028;-60
2022/04/22 07:01:57;;;;;;;7.93;3.15;;;12.60;71.80;;;;;;5085803;28;20165;-60
2022/04/22 07:04:24;;;;;;;2.80;2.35;;;12.60;71.70;;;;;;5087233;28;20387;-60
2022/04/22 07:06:51;;;;;;;3.97;2.67;;;12.70;71.60;;;;;;5087193;28;20035;-64
2022/04/22 07:09:17;;;;;;;2.45;1.98;;;12.70;71.50;;;;;;5084517;28;20505;-59
2022/04/22 07:11:44;;;;;;;2.70;2.17;;;12.80;71.20;;;;;;5082579;28;20024;-60
2022/04/22 07:14:11;;;;;;;2.80;1.83;;;12.90;71.00;;;;;;5079274;28;20028;-59
2022/04/22 07:16:43;;;;;;;2.78;2.50;;;12.90;70.80;;;;;;5084152;28;20473;-60
2022/04/22 07:19:09;;;;;;;4.45;2.13;;;12.90;70.60;;;;;;5077996;28;20032;-60
2022/04/22 07:21:35;;;;;;;5.60;2.90;;;12.90;70.60;;;;;;5075456;28;20456;-59
2022/04/22 07:24:01;;;;;;;3.65;2.53;;;12.90;70.60;;;;;;5080063;28;20032;-60
2022/04/22 07:26:27;;;;;;;3.00;2.53;;;12.90;70.50;;;;;;5084362;28;20055;-60
2022/04/22 07:28:56;;;;;;;1.67;1.58;;;13.00;70.40;;;;;;5077054;28;20475;-60
2022/04/22 07:31:22;;;;;;;8.02;2.83;;;13.00;70.30;;;;;;5076821;28;20410;-60
2022/04/22 07:33:49;;;;;;;5.13;2.22;;;13.10;70.10;;;;;;5081708;28;20107;-59
2022/04/22 07:36:15;;;;;;;3.78;2.53;;;13.20;70.00;;;;;;5083262;28;20086;-60
2022/04/22 07:38:41;;;;;;;2.38;2.05;;;13.20;69.70;;;;;;5073865;28;20348;-60
2022/04/22 07:41:09;;;;;;;5.35;2.65;;;13.30;69.60;;;;;;5072207;28;20066;-60
2022/04/22 07:49:05;;;;;;;2.33;1.70;;;13.60;69.10;;;;;;5078945;28;20442;-60
2022/04/22 07:51:31;;;;;;;3.67;2.28;;;13.70;68.50;;;;;;5082792;28;20050;-60
2022/04/22 07:53:56;;;;;;;2.95;2.50;;;13.80;68.20;;;;;;5076735;28;20028;-60
2022/04/22 07:56:23;;;;;;;3.15;2.33;;;13.90;67.90;;;;;;5073289;28;20031;-60
2022/04/22 07:58:49;;;;;;;2.40;1.60;;;13.90;67.50;;;;;;5068321;28;20111;-64
2022/04/22 08:01:14;;;;;;;4.95;3.13;;;13.90;67.40;;;;;;5083490;28;20115;-64
2022/04/22 08:03:40;;;;;;;2.30;1.90;;;13.90;67.30;;;;;;5079258;28;20050;-66
2022/04/22 08:06:06;;;;;;;3.10;2.45;;;14.00;67.50;;;;;;5081850;28;20056;-64
2022/04/22 08:08:32;;;;;;;2.33;1.75;;;14.00;67.30;;;;;;5069928;28;20047;-65
2022/04/22 08:10:58;;;;;;;3.15;2.33;;;14.10;67.20;;;;;;5078740;28;20642;-66
2022/04/22 08:13:26;;;;;;;3.40;2.58;;;14.20;67.00;;;;;;5083417;28;20107;-65
2022/04/22 08:15:52;;;;;;;3.35;2.08;;;14.20;66.60;;;;;;5085466;28;20036;-65
2022/04/22 08:18:18;;;;;;;4.40;2.53;;;14.30;66.80;;;;;;5084115;28;20109;-65
2022/04/22 08:20:44;;;;;;;2.70;2.33;;;14.30;66.30;;;;;;5079433;28;20143;-65
2022/04/22 08:23:11;;;;;;;3.80;2.42;;;14.30;66.30;;;;;;5089671;28;20127;-60
2022/04/22 08:25:37;;;;;;;5.80;3.47;;;14.40;66.10;;;;;;5081639;28;20526;-60
2022/04/22 08:28:03;;;;;;;2.97;2.40;;;14.50;66.00;;;;;;5080569;28;20028;-60
2022/04/22 08:30:29;;;;;;;5.10;2.45;;;14.50;66.30;;;;;;5082276;28;20039;-65
2022/04/22 08:32:55;;;;;;;3.53;2.53;;;14.60;65.50;;;;;;5073957;28;20012;-65
2022/04/22 08:35:22;;;;;;;4.03;2.75;;;14.60;65.50;;;;;;5084405;28;20097;-64
2022/04/22 08:37:47;;;;;;;2.78;2.10;;;14.70;65.60;;;;;;5084308;28;20032;-65
2022/04/22 08:40:14;;;;;;;3.70;2.33;;;14.80;65.50;;;;;;5076359;28;20201;-64
2022/04/22 08:42:41;;;;;;;3.58;1.95;;;14.80;65.10;;;;;;5086653;28;20024;-60
2022/04/22 08:45:09;;;;;;;1.92;1.60;;;14.90;65.00;;;;;;5085449;28;20432;-60
2022/04/22 08:50:22;;;;;;;3.03;2.10;;;15.00;64.50;;;;;;5081144;28;20043;-61
2022/04/22 08:52:56;;;;;;;2.80;2.28;;;14.90;64.50;;;;;;5087823;28;20518;-61
2022/04/22 08:55:24;;;;;;;4.10;2.30;;;15.00;64.50;;;;;;5090310;28;20032;-61
2022/04/22 08:57:49;;;;;;;6.50;2.55;;;15.00;64.20;;;;;;5077322;28;20399;-61
2022/04/22 09:00:17;;;;;;;3.67;2.45;;;15.10;64.10;;;;;;5081204;28;20028;-60
2022/04/22 09:02:42;;;;;;;2.55;2.00;;;15.20;64.00;;;;;;5079983;28;20502;-61
2022/04/22 09:05:09;;;;;;;4.28;2.85;;;15.30;63.50;;;;;;5080477;28;20074;-59
2022/04/22 09:07:37;;;;;;;2.83;2.10;;;15.40;63.30;;;;;;5077683;28;20035;-66
2022/04/22 09:10:03;;;;;;;2.42;2.20;;;15.50;62.80;;;;;;5079991;28;20442;-65
2022/04/22 09:12:28;;;;;;;5.25;2.33;;;15.40;62.40;;;;;;5079793;28;20024;-66
2022/04/22 09:14:58;;;;;;;2.13;1.73;;;15.40;62.40;;;;;;5086709;28;20035;-67
2022/04/22 09:17:29;;;;;;;3.33;2.10;;;15.40;62.50;;;;;;5077807;28;20044;-67
2022/04/22 09:19:57;;;;;;;3.88;2.10;;;15.40;62.60;;;;;;5078366;28;20029;-65
2022/04/22 09:22:24;;;;;;;3.20;1.83;;;15.50;62.60;;;;;;5081024;28;20036;-65
2022/04/22 09:24:53;;;;;;;2.20;1.40;;;15.60;62.50;;;;;;5082793;28;20116;-60
2022/04/22 09:27:19;;;;;;;3.55;2.00;;;15.70;62.10;;;;;;5068379;28;20068;-60
2022/04/22 09:29:55;;;;;;;1.75;1.45;;;15.80;61.90;;;;;;5079782;28;20075;-61
2022/04/22 09:32:32;;;;;;;3.28;1.80;;;15.90;61.60;;;;;;5077281;28;20119;-65
2022/04/22 09:35:08;;;;;;;2.05;1.52;;;16.00;61.60;;;;;;5070814;28;20398;-60
2022/04/22 09:43:35;;;;;;;2.63;1.70;;;16.40;61.30;;;;;;5087136;28;20050;-66
2022/04/22 09:46:02;;;;;;;1.50;1.40;;;16.50;60.80;;;;;;5074790;28;20028;-66
2022/04/22 09:48:44;;;;;;;1.63;1.50;;;16.60;60.70;;;;;;5073103;28;20113;-66
2022/04/22 09:51:39;;;;;;;4.15;1.85;;;16.80;60.20;;;;;;5076371;28;20483;-66
2022/04/22 09:54:14;;;;;;;3.22;1.40;;;16.80;59.80;;;;;;5069555;28;21966;-67
2022/04/22 09:56:55;;;;;;;1.10;1.00;;;16.90;59.70;;;;;;5077631;28;20491;-66
2022/04/22 09:59:23;;;;;;;1.65;1.50;;;17.00;59.70;;;;;;5076477;28;20044;-66
2022/04/22 10:01:49;;;;;;;2.67;1.35;;;17.20;59.20;;;;;;5078624;28;20848;-67
2022/04/22 10:04:17;;;;;;;1.63;1.52;;;17.20;58.20;;;;;;5082890;28;20124;-67
2022/04/22 10:06:45;;;;;;;1.38;1.15;;;17.30;58.20;;;;;;5079693;28;20091;-67
2022/04/22 10:09:11;;;;;;;1.50;1.40;;;17.20;58.10;;;;;;5076483;28;20499;-66
2022/04/22 10:11:39;;;;;;;3.60;1.63;;;17.30;58.00;;;;;;5069686;28;20052;-66
2022/04/22 10:14:11;;;;;;;1.77;1.20;;;17.40;57.60;;;;;;5078356;28;20155;-66
2022/04/22 10:16:37;;;;;;;;;;;17.60;57.60;;;;;;5070204;28;20120;-66
2022/04/22 10:19:04;;;;;;;1.08;1.05;;;17.60;57.10;;;;;;5096176;28;19920;-66
2022/04/22 10:21:30;;;;;;;3.00;1.85;;;17.70;57.40;;;;;;5076532;28;20471;-67
2022/04/22 10:23:56;;;;;;;1.67;1.13;;;17.80;56.90;;;;;;5086378;28;20028;-67
2022/04/22 10:26:22;;;;;;;2.30;1.55;;;17.70;56.30;;;;;;5079386;28;20045;-67
2022/04/22 10:28:49;;;;;;;1.20;1.10;;;17.60;56.30;;;;;;5082888;28;20434;-61
2022/04/22 10:31:15;;;;;;;2.08;1.48;;;17.60;56.80;;;;;;5073368;28;20033;-61
2022/04/22 10:33:43;;;;;;;1.08;0.98;;;17.70;56.70;;;;;;5078348;28;20043;-67
2022/04/22 10:36:12;;;;;;;1.83;1.45;;;17.90;56.70;;;;;;5079976;28;20071;-67
2022/04/22 10:38:39;;;;;;;1.20;1.10;;;18.10;55.80;;;;;;5084870;28;20036;-67
2022/04/22 10:41:23;;;;;;;1.45;1.35;;;18.20;55.00;;;;;;5088323;28;20031;-67
2022/04/22 10:49:37;;;;;;;3.35;1.20;;;17.80;54.80;;;;;;5078781;28;20070;-67
2022/04/22 10:52:10;;;;;;;3.72;1.52;;;17.80;55.20;;;;;;5070202;28;20089;-67
2022/04/22 10:54:54;;;;;;;2.33;1.60;;;17.90;55.00;;;;;;5077695;28;20066;-67
2022/04/22 10:57:31;;;;;;;1.42;1.33;;;18.20;54.40;;;;;;5067864;28;20024;-61
2022/04/22 11:00:08;;;;;;;1.90;1.10;;;18.30;54.00;;;;;;5080857;28;20521;-60
2022/04/22 11:02:40;;;;;;;1.25;1.10;;;18.50;53.50;;;;;;5074550;28;20033;-61
2022/04/22 11:05:20;;;;;;;2.58;1.55;;;18.50;53.40;;;;;;5069896;28;20038;-60
2022/04/22 11:07:57;;;;;;;1.13;0.80;;;18.50;52.80;;;;;;5071048;28;20455;-67
2022/04/22 11:10:32;;;;;;;1.70;1.60;;;18.60;52.60;;;;;;5086243;28;20063;-67
2022/04/22 11:12:59;;;;;;;0.90;0.90;;;18.80;52.40;;;;;;5108084;27;20429;-67
2022/04/22 11:15:43;;;;;;;1.38;1.05;;;18.80;51.70;;;;;;5078776;28;20107;-67
2022/04/22 11:18:10;;;;;;;0.65;0.63;;;18.90;50.90;;;;;;5074997;28;20033;-67
2022/04/22 11:20:37;;;;;;;1.00;0.95;;;19.00;51.10;;;;;;5080138;28;20024;-61
2022/04/22 11:23:06;;;;;;;0.90;0.80;;;19.10;50.50;;;;;;5081313;28;20028;-67
2022/04/22 11:25:34;;;;;;;1.27;0.90;;;19.30;50.20;;;;;;5079821;28;20048;-67
2022/04/22 11:28:02;;;;;;;1.40;0.98;;;19.50;49.00;;;;;;5084152;28;20032;-67
2022/04/22 11:30:29;;;;;;;1.00;0.88;;;19.60;46.90;;;;;;5085965;28;20566;-67
2022/04/22 11:33:23;;;;;;;3.47;0.90;;;19.50;46.10;;;;;;5081265;28;20024;-67
2022/04/22 11:35:52;;;;;;;1.73;0.85;;;19.30;46.50;;;;;;5074808;28;20032;-67
2022/04/22 11:38:17;;;;;;;0.85;0.85;;;19.10;47.10;;;;;;5074733;28;20115;-61
2022/04/22 11:40:44;;;;;;;0.82;0.70;;;19.10;47.20;;;;;;5083501;28;20115;-61
2022/04/22 11:43:11;;;;;;;1.10;1.00;;;19.10;47.30;;;;;;5073131;28;20453;-67
2022/04/22 11:45:44;;;;;;;1.27;0.90;;;19.10;46.50;;;;;;5087955;28;20062;-67
2022/04/22 11:48:12;;;;;;;1.17;0.80;;;19.10;45.60;;;;;;5082730;28;20039;-67
2022/04/22 11:50:42;;;;;;;1.08;0.98;;;19.00;45.50;;;;;;5087537;28;20483;-61
2022/04/22 11:53:17;;;;;;;4.50;0.93;;;19.10;45.70;;;;;;5084157;28;20028;-61
2022/04/22 11:55:44;;;;;;;1.33;0.73;;;19.20;45.90;;;;;;5085185;28;20373;-61
2022/04/22 11:58:17;;;;;;;0.82;0.82;;;19.30;45.40;;;;;;5075404;28;20009;-61
2022/04/22 12:06:14;;;;;;;0.82;0.75;;;19.30;45.30;;;;;;5079562;28;20079;-61
2022/04/22 12:09:03;;;;;;;1.00;0.80;;;19.20;45.70;;;;;;5086318;28;20028;-68
2022/04/22 12:11:29;;;;;;;1.45;1.25;;;19.30;45.80;;;;;;5090938;28;20024;-61
2022/04/22 12:13:56;;;;;;;1.38;1.20;;;19.50;45.10;;;;;;5082080;28;20047;-62
2022/04/22 12:16:27;;;;;;;0.88;0.80;;;19.50;44.90;;;;;;5078441;28;20471;-61
2022/04/22 12:18:54;;;;;;;2.00;1.00;;;19.40;45.60;;;;;;5089234;28;20044;-67
2022/04/22 12:21:21;;;;;;;2.67;1.40;;;19.50;45.80;;;;;;5086041;28;20036;-68
2022/04/22 12:23:48;;;;;;;2.47;1.10;;;19.50;45.40;;;;;;5080205;28;20067;-66
2022/04/22 12:26:15;;;;;;;1.30;0.98;;;19.40;44.00;;;;;;5079839;28;20151;-67
2022/04/22 12:29:06;;;;;;;1.50;1.15;;;19.50;45.00;;;;;;5086561;28;20139;-60
2022/04/22 12:31:33;;;;;;;1.35;1.00;;;19.70;45.00;;;;;;5085992;28;20038;-59
2022/04/22 12:34:10;;;;;;;1.65;1.23;;;20.00;44.70;;;;;;5087681;28;20032;-66
2022/04/22 12:36:53;;;;;;;0.85;0.85;;;20.20;44.30;;;;;;5074532;28;20036;-66
2022/04/22 12:39:42;;;;;;;1.20;0.98;;;20.50;44.50;;;;;;5085528;28;20760;-67
2022/04/22 12:42:19;;;;;;;1.02;0.82;;;20.60;43.90;;;;;;5074386;28;20028;-67
2022/04/22 12:53:31;;;;;;;1.15;0.85;;;20.80;43.50;;;;;;5079483;28;20052;-60
2022/04/22 12:56:08;;;;;;;1.13;1.00;;;20.70;42.70;;;;;;5087710;28;20016;-60
2022/04/22 12:58:57;;;;;;;2.00;0.88;;;20.60;42.70;;;;;;5083298;28;20595;-60
2022/04/22 13:01:27;;;;;;;1.15;0.80;;;20.40;43.00;;;;;;5090148;28;20028;-60
2022/04/22 13:03:57;;;;;;;0.77;0.60;;;20.30;43.10;;;;;;5079863;28;20485;-60
2022/04/22 13:06:42;;;;;;;1.15;0.70;;;20.40;43.40;;;;;;5085741;28;20477;-60
2022/04/22 13:09:10;;;;;;;1.42;1.08;;;20.30;42.70;;;;;;5086483;28;20070;-66
2022/04/22 13:11:36;;;;;;;0.60;0.60;;;20.30;42.40;;;;;;5083150;28;20020;-61
2022/04/22 13:14:03;;;;;;;1.70;1.05;;;20.10;42.70;;;;;;5088803;28;20032;-60
2022/04/22 13:16:28;;;;;;;1.52;0.85;;;20.00;43.00;;;;;;5090684;28;20079;-59
2022/04/22 13:18:55;;;;;;;1.40;1.02;;;19.90;43.40;;;;;;5076088;28;20759;-59
2022/04/22 13:21:21;;;;;;;1.35;1.05;;;19.70;43.80;;;;;;5084122;28;20926;-60
2022/04/22 13:23:47;;;;;;;1.15;0.90;;;19.60;44.10;;;;;;5081080;28;20089;-67
2022/04/22 13:26:13;;;;;;;1.55;1.13;;;19.50;44.20;;;;;;5081211;28;20067;-66
2022/04/22 13:28:39;;;;;;;1.38;0.80;;;19.40;44.10;;;;;;5084249;28;20036;-67
2022/04/22 13:31:04;;;;;;;1.75;0.98;;;19.30;44.30;;;;;;5090412;28;20107;-67
2022/04/22 13:33:32;;;;;;;1.20;1.10;;;19.20;44.50;;;;;;5088864;28;20036;-67
2022/04/22 13:36:04;;;;;;;1.25;0.93;;;19.20;44.60;;;;;;5091357;28;20747;-67
2022/04/22 13:38:32;;;;;;;2.55;1.45;;;19.20;44.80;;;;;;5084616;28;20028;-67
2022/04/22 13:41:00;;;;;;;2.20;0.90;;;19.10;44.70;;;;;;5091193;28;20838;-67
2022/04/22 13:43:30;;;;;;;1.58;1.15;;;19.20;44.80;;;;;;5075707;28;20194;-66
2022/04/22 13:54:08;;;;;;;2.35;1.00;;;19.60;44.50;;;;;;5086927;28;20092;-66
2022/04/22 13:56:34;;;;;;;0.50;0.50;;;19.70;44.20;;;;;;5077254;28;20119;-67
2022/04/22 13:59:00;;;;;;;1.17;0.95;;;19.70;44.30;;;;;;5077806;28;20040;-60
2022/04/22 14:01:25;;;;;;;1.15;0.70;;;19.70;44.20;;;;;;5080740;28;20037;-60
2022/04/22 14:03:51;;;;;;;2.22;0.60;;;19.70;44.30;;;;;;5071511;28;20417;-60
2022/04/22 14:06:17;;;;;;;0.68;0.68;;;19.70;44.40;;;;;;5080427;28;20467;-60
2022/04/22 14:08:43;;;;;;;1.13;0.85;;;19.70;44.40;;;;;;5076842;28;20028;-61
2022/04/22 14:11:09;;;;;;;1.17;0.88;;;19.60;44.70;;;;;;5088355;28;20478;-61